sensor_id;sensor_type;location;lat;lon;timestamp;P1;durP1;ratioP1;P2;durP2;ratioP2
39982;SDS011;25670;44.782;10.356;2024-03-23T00:56:22;10.60;;;9.05;;
39982;SDS011;25670;44.782;10.356;2024-03-23T00:58:49;19.92;;;9.75;;
39982;SDS011;25670;44.782;10.356;2024-03-23T01:01:15;9.25;;;8.35;;
39982;SDS011;25670;44.782;10.356;2024-03-23T01:03:42;11.20;;;8.75;;
39982;SDS011;25670;44.782;10.356;2024-03-23T01:06:08;9.02;;;8.25;;
39982;SDS011;25670;44.782;10.356;2024-03-23T01:08:34;9.05;;;8.15;;
39982;SDS011;25670;44.782;10.356;2024-03-23T01:11:02;15.07;;;8.10;;
39982;SDS011;25670;44.782;10.356;2024-03-23T01:13:28;13.75;;;8.32;;
39982;SDS011;25670;44.782;10.356;2024-03-23T01:15:55;8.85;;;7.75;;
39982;SDS011;25670;44.782;10.356;2024-03-23T01:18:22;8.65;;;7.85;;
39982;SDS011;25670;44.782;10.356;2024-03-23T01:20:49;8.52;;;7.05;;
39982;SDS011;25670;44.782;10.356;2024-03-23T01:23:15;9.40;;;7.47;;
39982;SDS011;25670;44.782;10.356;2024-03-23T01:25:42;7.75;;;7.20;;
39982;SDS011;25670;44.782;10.356;2024-03-23T01:28:08;7.68;;;7.07;;
39982;SDS011;25670;44.782;10.356;2024-03-23T01:30:35;8.48;;;7.63;;
39982;SDS011;25670;44.782;10.356;2024-03-23T01:33:01;7.95;;;7.28;;
39982;SDS011;25670;44.782;10.356;2024-03-23T01:35:28;8.07;;;7.28;;
39982;SDS011;25670;44.782;10.356;2024-03-23T01:37:55;8.57;;;7.63;;
39982;SDS011;25670;44.782;10.356;2024-03-23T01:40:21;8.73;;;7.57;;
39982;SDS011;25670;44.782;10.356;2024-03-23T01:42:57;7.05;;;6.55;;
39982;SDS011;25670;44.782;10.356;2024-03-23T01:45:24;9.23;;;7.70;;
39982;SDS011;25670;44.782;10.356;2024-03-23T01:47:53;9.68;;;7.60;;
39982;SDS011;25670;44.782;10.356;2024-03-23T01:50:20;9.15;;;8.45;;
39982;SDS011;25670;44.782;10.356;2024-03-23T01:52:46;10.38;;;7.25;;
39982;SDS011;25670;44.782;10.356;2024-03-23T01:55:13;8.93;;;7.38;;
39982;SDS011;25670;44.782;10.356;2024-03-23T01:57:40;8.45;;;7.55;;
39982;SDS011;25670;44.782;10.356;2024-03-23T02:00:06;8.45;;;7.68;;
39982;SDS011;25670;44.782;10.356;2024-03-23T02:02:42;8.43;;;7.55;;
39982;SDS011;25670;44.782;10.356;2024-03-23T02:05:10;8.80;;;7.05;;
39982;SDS011;25670;44.782;10.356;2024-03-23T02:07:38;7.30;;;6.60;;
39982;SDS011;25670;44.782;10.356;2024-03-23T02:10:09;6.15;;;5.65;;
39982;SDS011;25670;44.782;10.356;2024-03-23T02:12:36;7.35;;;6.65;;
39982;SDS011;25670;44.782;10.356;2024-03-23T02:15:03;7.57;;;6.88;;
39982;SDS011;25670;44.782;10.356;2024-03-23T02:17:30;9.30;;;5.90;;
39982;SDS011;25670;44.782;10.356;2024-03-23T02:19:58;7.10;;;5.47;;
39982;SDS011;25670;44.782;10.356;2024-03-23T02:22:25;8.43;;;5.50;;
39982;SDS011;25670;44.782;10.356;2024-03-23T02:24:51;5.80;;;5.30;;
39982;SDS011;25670;44.782;10.356;2024-03-23T02:27:17;5.00;;;4.70;;
39982;SDS011;25670;44.782;10.356;2024-03-23T02:29:43;5.75;;;4.88;;
39982;SDS011;25670;44.782;10.356;2024-03-23T02:32:10;9.05;;;5.38;;
39982;SDS011;25670;44.782;10.356;2024-03-23T02:34:36;5.72;;;5.05;;
39982;SDS011;25670;44.782;10.356;2024-03-23T02:37:02;10.13;;;4.80;;
39982;SDS011;25670;44.782;10.356;2024-03-23T02:39:35;6.32;;;4.15;;
39982;SDS011;25670;44.782;10.356;2024-03-23T02:42:01;5.53;;;5.00;;
39982;SDS011;25670;44.782;10.356;2024-03-23T02:44:27;4.63;;;3.90;;
39982;SDS011;25670;44.782;10.356;2024-03-23T02:46:54;5.97;;;4.95;;
39982;SDS011;25670;44.782;10.356;2024-03-23T02:49:20;13.68;;;4.30;;
39982;SDS011;25670;44.782;10.356;2024-03-23T02:51:47;5.40;;;4.03;;
39982;SDS011;25670;44.782;10.356;2024-03-23T02:54:14;4.45;;;4.15;;
39982;SDS011;25670;44.782;10.356;2024-03-23T02:56:40;4.78;;;4.20;;
39982;SDS011;25670;44.782;10.356;2024-03-23T02:59:06;4.43;;;4.13;;
39982;SDS011;25670;44.782;10.356;2024-03-23T03:01:33;4.75;;;3.95;;
39982;SDS011;25670;44.782;10.356;2024-03-23T03:04:00;6.00;;;4.88;;
39982;SDS011;25670;44.782;10.356;2024-03-23T03:06:26;4.00;;;3.70;;
39982;SDS011;25670;44.782;10.356;2024-03-23T03:08:53;3.90;;;3.60;;
39982;SDS011;25670;44.782;10.356;2024-03-23T03:11:19;3.75;;;3.45;;
39982;SDS011;25670;44.782;10.356;2024-03-23T03:13:45;6.57;;;3.30;;
39982;SDS011;25670;44.782;10.356;2024-03-23T03:16:12;4.07;;;3.78;;
39982;SDS011;25670;44.782;10.356;2024-03-23T03:18:38;4.25;;;3.95;;
39982;SDS011;25670;44.782;10.356;2024-03-23T03:21:06;3.65;;;3.25;;
39982;SDS011;25670;44.782;10.356;2024-03-23T03:23:39;4.63;;;3.35;;
39982;SDS011;25670;44.782;10.356;2024-03-23T03:26:06;4.50;;;3.13;;
39982;SDS011;25670;44.782;10.356;2024-03-23T03:28:32;3.40;;;3.10;;
39982;SDS011;25670;44.782;10.356;2024-03-23T03:30:59;3.88;;;3.50;;
39982;SDS011;25670;44.782;10.356;2024-03-23T03:33:28;5.65;;;2.95;;
39982;SDS011;25670;44.782;10.356;2024-03-23T03:35:55;4.05;;;3.33;;
39982;SDS011;25670;44.782;10.356;2024-03-23T03:38:21;11.40;;;4.00;;
39982;SDS011;25670;44.782;10.356;2024-03-23T03:40:47;4.43;;;3.25;;
39982;SDS011;25670;44.782;10.356;2024-03-23T03:43:13;2.72;;;2.53;;
39982;SDS011;25670;44.782;10.356;2024-03-23T03:45:39;2.65;;;2.45;;
39982;SDS011;25670;44.782;10.356;2024-03-23T03:48:06;2.72;;;2.53;;
39982;SDS011;25670;44.782;10.356;2024-03-23T03:50:33;2.80;;;2.60;;
39982;SDS011;25670;44.782;10.356;2024-03-23T03:52:59;2.78;;;2.58;;
39982;SDS011;25670;44.782;10.356;2024-03-23T03:55:25;3.38;;;3.08;;
39982;SDS011;25670;44.782;10.356;2024-03-23T03:57:51;3.95;;;3.58;;
39982;SDS011;25670;44.782;10.356;2024-03-23T04:00:17;4.63;;;4.32;;
39982;SDS011;25670;44.782;10.356;2024-03-23T04:02:44;4.78;;;4.47;;
39982;SDS011;25670;44.782;10.356;2024-03-23T04:05:10;6.03;;;4.50;;
39982;SDS011;25670;44.782;10.356;2024-03-23T04:07:36;5.35;;;4.95;;
39982;SDS011;25670;44.782;10.356;2024-03-23T04:10:02;4.93;;;4.53;;
39982;SDS011;25670;44.782;10.356;2024-03-23T04:12:32;5.05;;;4.68;;
39982;SDS011;25670;44.782;10.356;2024-03-23T04:14:59;4.68;;;4.38;;
39982;SDS011;25670;44.782;10.356;2024-03-23T04:17:26;5.25;;;4.90;;
39982;SDS011;25670;44.782;10.356;2024-03-23T04:19:57;7.68;;;5.28;;
39982;SDS011;25670;44.782;10.356;2024-03-23T04:22:24;5.40;;;5.00;;
39982;SDS011;25670;44.782;10.356;2024-03-23T04:24:55;4.57;;;4.18;;
39982;SDS011;25670;44.782;10.356;2024-03-23T04:27:25;5.87;;;5.47;;
39982;SDS011;25670;44.782;10.356;2024-03-23T04:29:52;6.05;;;5.50;;
39982;SDS011;25670;44.782;10.356;2024-03-23T04:32:18;7.13;;;5.63;;
39982;SDS011;25670;44.782;10.356;2024-03-23T04:34:45;5.70;;;5.20;;
39982;SDS011;25670;44.782;10.356;2024-03-23T04:37:11;5.80;;;5.30;;
39982;SDS011;25670;44.782;10.356;2024-03-23T04:39:37;6.65;;;5.07;;
39982;SDS011;25670;44.782;10.356;2024-03-23T04:42:04;6.13;;;5.63;;
39982;SDS011;25670;44.782;10.356;2024-03-23T04:44:30;6.40;;;5.80;;
39982;SDS011;25670;44.782;10.356;2024-03-23T04:46:57;6.53;;;6.03;;
39982;SDS011;25670;44.782;10.356;2024-03-23T04:49:24;7.10;;;6.50;;
39982;SDS011;25670;44.782;10.356;2024-03-23T04:51:51;6.68;;;6.18;;
39982;SDS011;25670;44.782;10.356;2024-03-23T04:54:17;6.18;;;5.45;;
39982;SDS011;25670;44.782;10.356;2024-03-23T04:56:43;5.45;;;4.97;;
39982;SDS011;25670;44.782;10.356;2024-03-23T04:59:10;6.55;;;5.57;;
39982;SDS011;25670;44.782;10.356;2024-03-23T05:01:37;5.43;;;5.03;;
39982;SDS011;25670;44.782;10.356;2024-03-23T05:04:08;5.32;;;4.82;;
39982;SDS011;25670;44.782;10.356;2024-03-23T05:06:35;10.98;;;5.55;;
39982;SDS011;25670;44.782;10.356;2024-03-23T05:09:01;6.72;;;5.90;;
39982;SDS011;25670;44.782;10.356;2024-03-23T05:11:32;6.07;;;5.47;;
39982;SDS011;25670;44.782;10.356;2024-03-23T05:13:59;11.88;;;5.80;;
39982;SDS011;25670;44.782;10.356;2024-03-23T05:16:26;6.30;;;5.82;;
39982;SDS011;25670;44.782;10.356;2024-03-23T05:18:52;6.60;;;5.45;;
39982;SDS011;25670;44.782;10.356;2024-03-23T05:21:18;7.22;;;5.25;;
39982;SDS011;25670;44.782;10.356;2024-03-23T05:23:44;4.97;;;4.68;;
39982;SDS011;25670;44.782;10.356;2024-03-23T05:26:11;6.32;;;5.45;;
39982;SDS011;25670;44.782;10.356;2024-03-23T05:28:37;6.50;;;4.88;;
39982;SDS011;25670;44.782;10.356;2024-03-23T05:31:04;5.70;;;5.20;;
39982;SDS011;25670;44.782;10.356;2024-03-23T05:33:30;8.52;;;6.05;;
39982;SDS011;25670;44.782;10.356;2024-03-23T05:36:00;5.03;;;4.63;;
39982;SDS011;25670;44.782;10.356;2024-03-23T05:38:27;5.90;;;5.30;;
39982;SDS011;25670;44.782;10.356;2024-03-23T05:40:57;5.65;;;5.15;;
39982;SDS011;25670;44.782;10.356;2024-03-23T05:43:24;5.85;;;5.45;;
39982;SDS011;25670;44.782;10.356;2024-03-23T05:45:54;5.53;;;5.03;;
39982;SDS011;25670;44.782;10.356;2024-03-23T05:48:21;5.43;;;4.93;;
39982;SDS011;25670;44.782;10.356;2024-03-23T05:50:48;5.20;;;4.70;;
39982;SDS011;25670;44.782;10.356;2024-03-23T05:53:15;6.95;;;5.13;;
39982;SDS011;25670;44.782;10.356;2024-03-23T05:55:42;7.20;;;4.53;;
39982;SDS011;25670;44.782;10.356;2024-03-23T05:58:09;6.32;;;4.88;;
39982;SDS011;25670;44.782;10.356;2024-03-23T06:00:36;7.18;;;5.22;;
39982;SDS011;25670;44.782;10.356;2024-03-23T06:03:02;5.60;;;5.13;;
39982;SDS011;25670;44.782;10.356;2024-03-23T06:05:29;5.53;;;5.00;;
39982;SDS011;25670;44.782;10.356;2024-03-23T06:07:55;4.80;;;4.50;;
39982;SDS011;25670;44.782;10.356;2024-03-23T06:10:22;5.50;;;5.03;;
39982;SDS011;25670;44.782;10.356;2024-03-23T06:12:49;6.57;;;5.80;;
39982;SDS011;25670;44.782;10.356;2024-03-23T06:15:21;9.48;;;5.63;;
39982;SDS011;25670;44.782;10.356;2024-03-23T06:17:48;11.77;;;7.53;;
39982;SDS011;25670;44.782;10.356;2024-03-23T06:20:15;6.70;;;6.10;;
39982;SDS011;25670;44.782;10.356;2024-03-23T06:22:42;13.07;;;7.95;;
39982;SDS011;25670;44.782;10.356;2024-03-23T06:25:08;7.97;;;6.65;;
39982;SDS011;25670;44.782;10.356;2024-03-23T06:27:35;9.45;;;6.90;;
39982;SDS011;25670;44.782;10.356;2024-03-23T06:30:01;6.72;;;6.15;;
39982;SDS011;25670;44.782;10.356;2024-03-23T06:32:28;12.73;;;7.45;;
39982;SDS011;25670;44.782;10.356;2024-03-23T06:34:55;8.57;;;6.63;;
39982;SDS011;25670;44.782;10.356;2024-03-23T06:37:21;7.63;;;5.95;;
39982;SDS011;25670;44.782;10.356;2024-03-23T06:39:48;15.23;;;6.43;;
39982;SDS011;25670;44.782;10.356;2024-03-23T06:42:15;8.73;;;5.88;;
39982;SDS011;25670;44.782;10.356;2024-03-23T06:44:41;9.63;;;7.05;;
39982;SDS011;25670;44.782;10.356;2024-03-23T06:47:09;8.65;;;6.78;;
39982;SDS011;25670;44.782;10.356;2024-03-23T06:49:36;10.65;;;6.82;;
39982;SDS011;25670;44.782;10.356;2024-03-23T06:52:03;8.15;;;6.38;;
39982;SDS011;25670;44.782;10.356;2024-03-23T06:54:30;7.53;;;6.88;;
39982;SDS011;25670;44.782;10.356;2024-03-23T06:56:56;12.18;;;6.78;;
39982;SDS011;25670;44.782;10.356;2024-03-23T06:59:23;6.35;;;5.75;;
39982;SDS011;25670;44.782;10.356;2024-03-23T07:01:49;5.57;;;5.18;;
39982;SDS011;25670;44.782;10.356;2024-03-23T07:04:16;5.43;;;4.60;;
39982;SDS011;25670;44.782;10.356;2024-03-23T07:06:44;7.68;;;4.80;;
39982;SDS011;25670;44.782;10.356;2024-03-23T07:09:11;8.52;;;5.05;;
39982;SDS011;25670;44.782;10.356;2024-03-23T07:11:38;12.57;;;5.03;;
39982;SDS011;25670;44.782;10.356;2024-03-23T07:14:05;4.97;;;4.57;;
39982;SDS011;25670;44.782;10.356;2024-03-23T07:16:32;6.47;;;5.68;;
39982;SDS011;25670;44.782;10.356;2024-03-23T07:18:58;9.48;;;5.18;;
39982;SDS011;25670;44.782;10.356;2024-03-23T07:21:25;5.13;;;4.72;;
39982;SDS011;25670;44.782;10.356;2024-03-23T07:23:51;8.43;;;4.40;;
39982;SDS011;25670;44.782;10.356;2024-03-23T07:26:18;5.20;;;4.47;;
39982;SDS011;25670;44.782;10.356;2024-03-23T07:28:44;6.10;;;5.50;;
39982;SDS011;25670;44.782;10.356;2024-03-23T07:31:15;6.72;;;6.13;;
39982;SDS011;25670;44.782;10.356;2024-03-23T07:33:42;7.63;;;5.88;;
39982;SDS011;25670;44.782;10.356;2024-03-23T07:36:11;6.10;;;5.20;;
39982;SDS011;25670;44.782;10.356;2024-03-23T07:38:41;5.43;;;4.93;;
39982;SDS011;25670;44.782;10.356;2024-03-23T07:41:18;5.10;;;4.63;;
39982;SDS011;25670;44.782;10.356;2024-03-23T07:43:46;9.13;;;7.35;;
39982;SDS011;25670;44.782;10.356;2024-03-23T07:46:14;9.40;;;6.78;;
39982;SDS011;25670;44.782;10.356;2024-03-23T07:48:41;5.20;;;4.70;;
39982;SDS011;25670;44.782;10.356;2024-03-23T07:51:09;5.03;;;4.60;;
39982;SDS011;25670;44.782;10.356;2024-03-23T07:53:42;6.22;;;4.68;;
39982;SDS011;25670;44.782;10.356;2024-03-23T07:56:10;4.82;;;4.45;;
39982;SDS011;25670;44.782;10.356;2024-03-23T07:58:38;2.97;;;2.78;;
39982;SDS011;25670;44.782;10.356;2024-03-23T08:01:05;4.20;;;2.60;;
39982;SDS011;25670;44.782;10.356;2024-03-23T08:03:43;4.20;;;2.70;;
39982;SDS011;25670;44.782;10.356;2024-03-23T08:06:11;2.33;;;2.15;;
39982;SDS011;25670;44.782;10.356;2024-03-23T08:08:39;2.08;;;1.98;;
39982;SDS011;25670;44.782;10.356;2024-03-23T08:11:07;3.33;;;1.92;;
39982;SDS011;25670;44.782;10.356;2024-03-23T08:13:34;3.83;;;2.40;;
39982;SDS011;25670;44.782;10.356;2024-03-23T08:16:02;2.28;;;2.17;;
39982;SDS011;25670;44.782;10.356;2024-03-23T08:18:30;3.00;;;2.47;;
39982;SDS011;25670;44.782;10.356;2024-03-23T08:20:57;2.15;;;1.92;;
39982;SDS011;25670;44.782;10.356;2024-03-23T08:23:28;3.80;;;2.00;;
39982;SDS011;25670;44.782;10.356;2024-03-23T08:25:57;4.70;;;2.38;;
39982;SDS011;25670;44.782;10.356;2024-03-23T08:28:24;3.65;;;2.35;;
39982;SDS011;25670;44.782;10.356;2024-03-23T08:30:55;2.83;;;2.22;;
39982;SDS011;25670;44.782;10.356;2024-03-23T08:33:22;3.28;;;2.00;;
39982;SDS011;25670;44.782;10.356;2024-03-23T08:35:53;2.42;;;2.10;;
39982;SDS011;25670;44.782;10.356;2024-03-23T08:38:20;2.38;;;1.95;;
39982;SDS011;25670;44.782;10.356;2024-03-23T08:40:47;6.40;;;2.70;;
39982;SDS011;25670;44.782;10.356;2024-03-23T08:43:22;5.32;;;2.28;;
39982;SDS011;25670;44.782;10.356;2024-03-23T08:45:48;2.65;;;1.80;;
39982;SDS011;25670;44.782;10.356;2024-03-23T08:48:15;2.28;;;1.90;;
39982;SDS011;25670;44.782;10.356;2024-03-23T08:50:41;2.30;;;2.13;;
39982;SDS011;25670;44.782;10.356;2024-03-23T08:53:08;4.13;;;2.65;;
39982;SDS011;25670;44.782;10.356;2024-03-23T08:55:35;6.03;;;2.05;;
39982;SDS011;25670;44.782;10.356;2024-03-23T08:58:01;3.10;;;2.85;;
39982;SDS011;25670;44.782;10.356;2024-03-23T09:00:27;3.88;;;2.10;;
39982;SDS011;25670;44.782;10.356;2024-03-23T09:02:54;2.97;;;1.80;;
39982;SDS011;25670;44.782;10.356;2024-03-23T09:05:21;3.55;;;2.20;;
39982;SDS011;25670;44.782;10.356;2024-03-23T09:07:47;6.13;;;2.00;;
39982;SDS011;25670;44.782;10.356;2024-03-23T09:10:14;7.03;;;2.22;;
39982;SDS011;25670;44.782;10.356;2024-03-23T09:12:40;5.72;;;2.00;;
39982;SDS011;25670;44.782;10.356;2024-03-23T09:15:06;22.40;;;12.63;;
39982;SDS011;25670;44.782;10.356;2024-03-23T09:17:33;13.50;;;11.35;;
39982;SDS011;25670;44.782;10.356;2024-03-23T09:20:00;20.45;;;14.35;;
39982;SDS011;25670;44.782;10.356;2024-03-23T09:22:26;19.52;;;14.40;;
39982;SDS011;25670;44.782;10.356;2024-03-23T09:24:53;35.25;;;15.15;;
39982;SDS011;25670;44.782;10.356;2024-03-23T09:27:19;34.05;;;17.63;;
39982;SDS011;25670;44.782;10.356;2024-03-23T09:29:45;34.80;;;19.08;;
39982;SDS011;25670;44.782;10.356;2024-03-23T09:32:12;27.67;;;17.75;;
39982;SDS011;25670;44.782;10.356;2024-03-23T09:34:38;27.65;;;16.65;;
39982;SDS011;25670;44.782;10.356;2024-03-23T09:37:04;30.80;;;18.63;;
39982;SDS011;25670;44.782;10.356;2024-03-23T09:39:31;30.70;;;18.58;;
39982;SDS011;25670;44.782;10.356;2024-03-23T09:41:58;29.10;;;18.55;;
39982;SDS011;25670;44.782;10.356;2024-03-23T09:44:24;33.35;;;19.17;;
39982;SDS011;25670;44.782;10.356;2024-03-23T09:46:52;39.25;;;20.50;;
39982;SDS011;25670;44.782;10.356;2024-03-23T09:49:18;33.72;;;20.20;;
39982;SDS011;25670;44.782;10.356;2024-03-23T09:51:45;31.23;;;21.02;;
39982;SDS011;25670;44.782;10.356;2024-03-23T09:54:11;39.08;;;22.73;;
39982;SDS011;25670;44.782;10.356;2024-03-23T09:56:37;34.85;;;19.63;;
39982;SDS011;25670;44.782;10.356;2024-03-23T09:59:05;38.90;;;21.23;;
39982;SDS011;25670;44.782;10.356;2024-03-23T10:01:32;38.58;;;22.40;;
39982;SDS011;25670;44.782;10.356;2024-03-23T10:03:58;41.80;;;22.15;;
39982;SDS011;25670;44.782;10.356;2024-03-23T10:06:25;39.97;;;22.08;;
39982;SDS011;25670;44.782;10.356;2024-03-23T10:08:52;45.55;;;23.45;;
39982;SDS011;25670;44.782;10.356;2024-03-23T10:11:20;53.80;;;25.33;;
39982;SDS011;25670;44.782;10.356;2024-03-23T10:13:47;44.42;;;22.23;;
39982;SDS011;25670;44.782;10.356;2024-03-23T10:16:23;49.17;;;23.80;;
39982;SDS011;25670;44.782;10.356;2024-03-23T10:18:49;49.25;;;23.85;;
39982;SDS011;25670;44.782;10.356;2024-03-23T10:21:16;49.92;;;24.63;;
39982;SDS011;25670;44.782;10.356;2024-03-23T10:23:43;44.40;;;23.67;;
39982;SDS011;25670;44.782;10.356;2024-03-23T10:26:20;46.05;;;22.25;;
39982;SDS011;25670;44.782;10.356;2024-03-23T10:29:00;47.20;;;24.73;;
39982;SDS011;25670;44.782;10.356;2024-03-23T10:31:28;45.42;;;23.60;;
39982;SDS011;25670;44.782;10.356;2024-03-23T10:33:55;47.08;;;23.73;;
39982;SDS011;25670;44.782;10.356;2024-03-23T10:36:22;41.47;;;24.25;;
39982;SDS011;25670;44.782;10.356;2024-03-23T10:38:52;45.13;;;21.80;;
39982;SDS011;25670;44.782;10.356;2024-03-23T10:41:20;40.72;;;22.70;;
39982;SDS011;25670;44.782;10.356;2024-03-23T10:43:47;49.45;;;24.02;;
39982;SDS011;25670;44.782;10.356;2024-03-23T10:46:15;55.00;;;23.60;;
39982;SDS011;25670;44.782;10.356;2024-03-23T10:48:41;45.88;;;23.05;;
39982;SDS011;25670;44.782;10.356;2024-03-23T10:51:09;43.63;;;23.35;;
39982;SDS011;25670;44.782;10.356;2024-03-23T10:53:36;50.95;;;25.35;;
39982;SDS011;25670;44.782;10.356;2024-03-23T10:56:03;41.10;;;21.88;;
39982;SDS011;25670;44.782;10.356;2024-03-23T10:58:31;43.35;;;22.63;;
39982;SDS011;25670;44.782;10.356;2024-03-23T11:01:04;38.40;;;22.23;;
39982;SDS011;25670;44.782;10.356;2024-03-23T11:03:31;44.95;;;23.05;;
39982;SDS011;25670;44.782;10.356;2024-03-23T11:06:03;34.78;;;20.70;;
39982;SDS011;25670;44.782;10.356;2024-03-23T11:08:39;40.83;;;22.05;;
39982;SDS011;25670;44.782;10.356;2024-03-23T11:13:40;14.23;;;6.40;;
39982;SDS011;25670;44.782;10.356;2024-03-23T11:16:40;4.53;;;2.17;;
39982;SDS011;25670;44.782;10.356;2024-03-23T11:21:59;4.57;;;1.95;;
39982;SDS011;25670;44.782;10.356;2024-03-23T11:24:27;4.53;;;1.67;;
39982;SDS011;25670;44.782;10.356;2024-03-23T11:26:53;5.07;;;2.38;;
39982;SDS011;25670;44.782;10.356;2024-03-23T11:29:20;9.73;;;2.63;;
39982;SDS011;25670;44.782;10.356;2024-03-23T11:31:51;3.97;;;1.70;;
39982;SDS011;25670;44.782;10.356;2024-03-23T11:34:21;4.90;;;1.88;;
39982;SDS011;25670;44.782;10.356;2024-03-23T11:36:48;4.05;;;1.55;;
39982;SDS011;25670;44.782;10.356;2024-03-23T11:44:17;6.32;;;1.65;;
39982;SDS011;25670;44.782;10.356;2024-03-23T11:46:49;18.23;;;3.70;;
39982;SDS011;25670;44.782;10.356;2024-03-23T11:49:19;2.10;;;1.90;;
39982;SDS011;25670;44.782;10.356;2024-03-23T11:51:55;5.75;;;1.65;;
39982;SDS011;25670;44.782;10.356;2024-03-23T11:54:23;2.33;;;1.80;;
39982;SDS011;25670;44.782;10.356;2024-03-23T11:57:08;2.70;;;1.52;;
39982;SDS011;25670;44.782;10.356;2024-03-23T11:59:39;4.45;;;1.80;;
39982;SDS011;25670;44.782;10.356;2024-03-23T12:02:07;3.72;;;1.90;;
39982;SDS011;25670;44.782;10.356;2024-03-23T12:04:36;9.65;;;2.70;;
39982;SDS011;25670;44.782;10.356;2024-03-23T12:07:13;3.30;;;1.92;;
39982;SDS011;25670;44.782;10.356;2024-03-23T12:09:45;2.20;;;1.80;;
39982;SDS011;25670;44.782;10.356;2024-03-23T12:12:16;5.20;;;1.48;;
39982;SDS011;25670;44.782;10.356;2024-03-23T12:14:43;3.28;;;1.70;;
39982;SDS011;25670;44.782;10.356;2024-03-23T12:17:14;4.40;;;1.67;;
39982;SDS011;25670;44.782;10.356;2024-03-23T12:19:41;1.67;;;1.58;;
39982;SDS011;25670;44.782;10.356;2024-03-23T12:22:10;4.80;;;1.52;;
39982;SDS011;25670;44.782;10.356;2024-03-23T12:24:37;2.17;;;1.50;;
39982;SDS011;25670;44.782;10.356;2024-03-23T12:27:10;7.72;;;1.40;;
39982;SDS011;25670;44.782;10.356;2024-03-23T12:29:37;1.50;;;1.40;;
39982;SDS011;25670;44.782;10.356;2024-03-23T12:32:05;4.90;;;1.40;;
39982;SDS011;25670;44.782;10.356;2024-03-23T12:34:32;3.72;;;1.27;;
39982;SDS011;25670;44.782;10.356;2024-03-23T12:36:59;3.45;;;1.35;;
39982;SDS011;25670;44.782;10.356;2024-03-23T12:39:25;2.95;;;1.90;;
39982;SDS011;25670;44.782;10.356;2024-03-23T12:41:52;4.30;;;1.10;;
39982;SDS011;25670;44.782;10.356;2024-03-23T12:44:19;7.38;;;1.25;;
39982;SDS011;25670;44.782;10.356;2024-03-23T12:46:46;4.70;;;1.40;;
39982;SDS011;25670;44.782;10.356;2024-03-23T12:49:13;3.35;;;1.10;;
39982;SDS011;25670;44.782;10.356;2024-03-23T12:51:42;2.60;;;1.17;;
39982;SDS011;25670;44.782;10.356;2024-03-23T12:54:18;1.38;;;1.10;;
39982;SDS011;25670;44.782;10.356;2024-03-23T12:56:45;2.78;;;1.10;;
39982;SDS011;25670;44.782;10.356;2024-03-23T12:59:12;3.88;;;0.70;;
39982;SDS011;25670;44.782;10.356;2024-03-23T13:01:39;3.15;;;1.27;;
39982;SDS011;25670;44.782;10.356;2024-03-23T13:04:06;1.33;;;1.15;;
39982;SDS011;25670;44.782;10.356;2024-03-23T13:06:34;0.77;;;0.60;;
39982;SDS011;25670;44.782;10.356;2024-03-23T13:09:01;2.13;;;1.05;;
39982;SDS011;25670;44.782;10.356;2024-03-23T13:11:27;1.33;;;0.98;;
39982;SDS011;25670;44.782;10.356;2024-03-23T13:13:54;6.78;;;0.90;;
39982;SDS011;25670;44.782;10.356;2024-03-23T13:16:20;0.90;;;0.70;;
39982;SDS011;25670;44.782;10.356;2024-03-23T13:18:47;2.95;;;0.82;;
39982;SDS011;25670;44.782;10.356;2024-03-23T13:21:14;2.25;;;0.77;;
39982;SDS011;25670;44.782;10.356;2024-03-23T13:23:40;2.67;;;0.80;;
39982;SDS011;25670;44.782;10.356;2024-03-23T13:26:08;1.02;;;0.77;;
39982;SDS011;25670;44.782;10.356;2024-03-23T13:28:34;1.17;;;1.00;;
39982;SDS011;25670;44.782;10.356;2024-03-23T13:31:03;1.83;;;0.70;;
39982;SDS011;25670;44.782;10.356;2024-03-23T13:33:30;1.98;;;1.00;;
39982;SDS011;25670;44.782;10.356;2024-03-23T13:35:58;1.67;;;0.82;;
39982;SDS011;25670;44.782;10.356;2024-03-23T13:38:25;0.65;;;0.47;;
39982;SDS011;25670;44.782;10.356;2024-03-23T13:40:55;2.15;;;1.48;;
39982;SDS011;25670;44.782;10.356;2024-03-23T13:43:23;2.15;;;1.02;;
39982;SDS011;25670;44.782;10.356;2024-03-23T13:45:58;3.80;;;1.52;;
39982;SDS011;25670;44.782;10.356;2024-03-23T13:48:26;1.50;;;0.90;;
39982;SDS011;25670;44.782;10.356;2024-03-23T13:51:02;4.75;;;0.82;;
39982;SDS011;25670;44.782;10.356;2024-03-23T13:53:30;2.22;;;1.15;;
39982;SDS011;25670;44.782;10.356;2024-03-23T13:55:58;1.75;;;0.95;;
39982;SDS011;25670;44.782;10.356;2024-03-23T13:58:24;7.05;;;1.00;;
39982;SDS011;25670;44.782;10.356;2024-03-23T14:00:51;1.13;;;0.73;;
39982;SDS011;25670;44.782;10.356;2024-03-23T14:03:18;1.63;;;0.60;;
39982;SDS011;25670;44.782;10.356;2024-03-23T14:05:44;4.55;;;1.00;;
39982;SDS011;25670;44.782;10.356;2024-03-23T14:08:10;6.30;;;1.40;;
39982;SDS011;25670;44.782;10.356;2024-03-23T14:10:40;5.93;;;1.13;;
39982;SDS011;25670;44.782;10.356;2024-03-23T14:13:07;5.38;;;1.40;;
39982;SDS011;25670;44.782;10.356;2024-03-23T14:15:33;5.82;;;1.08;;
39982;SDS011;25670;44.782;10.356;2024-03-23T14:18:02;3.47;;;1.05;;
39982;SDS011;25670;44.782;10.356;2024-03-23T14:20:29;3.88;;;1.52;;
39982;SDS011;25670;44.782;10.356;2024-03-23T14:22:55;6.65;;;1.20;;
39982;SDS011;25670;44.782;10.356;2024-03-23T14:25:22;4.65;;;0.90;;
39982;SDS011;25670;44.782;10.356;2024-03-23T14:27:52;8.18;;;1.17;;
39982;SDS011;25670;44.782;10.356;2024-03-23T14:30:19;4.32;;;1.00;;
39982;SDS011;25670;44.782;10.356;2024-03-23T14:32:45;2.83;;;1.08;;
39982;SDS011;25670;44.782;10.356;2024-03-23T14:35:11;2.53;;;1.00;;
39982;SDS011;25670;44.782;10.356;2024-03-23T14:37:38;2.72;;;1.00;;
39982;SDS011;25670;44.782;10.356;2024-03-23T14:40:05;8.45;;;1.08;;
39982;SDS011;25670;44.782;10.356;2024-03-23T14:42:32;3.85;;;0.82;;
39982;SDS011;25670;44.782;10.356;2024-03-23T14:44:59;5.75;;;1.27;;
39982;SDS011;25670;44.782;10.356;2024-03-23T14:47:25;5.25;;;0.98;;
39982;SDS011;25670;44.782;10.356;2024-03-23T14:49:52;2.30;;;1.02;;
39982;SDS011;25670;44.782;10.356;2024-03-23T14:52:18;4.03;;;1.17;;
39982;SDS011;25670;44.782;10.356;2024-03-23T14:54:45;3.20;;;0.90;;
39982;SDS011;25670;44.782;10.356;2024-03-23T14:57:12;8.57;;;1.15;;
39982;SDS011;25670;44.782;10.356;2024-03-23T14:59:39;1.58;;;0.88;;
39982;SDS011;25670;44.782;10.356;2024-03-23T15:02:09;6.90;;;0.90;;
39982;SDS011;25670;44.782;10.356;2024-03-23T15:04:36;3.95;;;1.38;;
39982;SDS011;25670;44.782;10.356;2024-03-23T15:07:02;1.85;;;0.85;;
39982;SDS011;25670;44.782;10.356;2024-03-23T15:09:28;3.67;;;1.65;;
39982;SDS011;25670;44.782;10.356;2024-03-23T15:11:55;6.95;;;1.23;;
39982;SDS011;25670;44.782;10.356;2024-03-23T15:14:23;0.98;;;0.70;;
39982;SDS011;25670;44.782;10.356;2024-03-23T15:16:49;10.15;;;0.85;;
39982;SDS011;25670;44.782;10.356;2024-03-23T15:19:16;1.92;;;0.85;;
39982;SDS011;25670;44.782;10.356;2024-03-23T15:21:45;4.53;;;1.52;;
39982;SDS011;25670;44.782;10.356;2024-03-23T15:24:12;5.13;;;0.90;;
39982;SDS011;25670;44.782;10.356;2024-03-23T15:26:38;2.00;;;0.70;;
39982;SDS011;25670;44.782;10.356;2024-03-23T15:29:04;3.60;;;0.93;;
39982;SDS011;25670;44.782;10.356;2024-03-23T15:31:42;1.85;;;0.73;;
39982;SDS011;25670;44.782;10.356;2024-03-23T15:34:09;2.67;;;0.82;;
39982;SDS011;25670;44.782;10.356;2024-03-23T15:36:37;0.80;;;0.60;;
39982;SDS011;25670;44.782;10.356;2024-03-23T15:39:06;5.05;;;1.35;;